Time;durP1;ratioP1;P1;durP2;ratioP2;P2;SDS_P1;SDS_P2;PMS_P1;PMS_P2;Temp;Humidity;BMP_temperature;BMP_pressure;BME280_temperature;BME280_humidity;BME280_pressure;Samples;Min_cycle;Max_cycle;Signal;HPM_P1;HPM_P2
2022/02/13 00:00:15;;;;;;;6.40;5.25;;;6.70;77.40;;;;;;5120418;27;20091;-79
2022/02/13 00:02:43;;;;;;;7.40;5.88;;;6.70;77.20;;;;;;5120410;27;20022;-79
2022/02/13 00:05:09;;;;;;;8.55;5.03;;;6.70;77.20;;;;;;5120235;27;20027;-79
2022/02/13 00:07:36;;;;;;;6.65;5.20;;;6.70;77.60;;;;;;5119764;27;20023;-79
2022/02/13 00:10:04;;;;;;;8.23;4.80;;;6.70;77.60;;;;;;5120021;27;20472;-79
2022/02/13 00:12:30;;;;;;;9.80;4.90;;;6.80;77.40;;;;;;5139919;27;20030;-79
2022/02/13 00:14:56;;;;;;;5.28;3.83;;;6.80;77.30;;;;;;5159196;27;20400;-79
2022/02/13 00:17:23;;;;;;;8.13;4.25;;;6.80;77.30;;;;;;5159038;27;20026;-79
2022/02/13 00:19:49;;;;;;;7.55;5.20;;;6.90;77.10;;;;;;5140641;27;20083;-79
2022/02/13 00:22:18;;;;;;;6.50;4.32;;;6.90;77.20;;;;;;5135210;27;20030;-78
2022/02/13 00:24:45;;;;;;;9.18;4.70;;;7.00;77.00;;;;;;5119465;27;20202;-79
2022/02/13 00:27:11;;;;;;;6.70;4.03;;;7.00;77.10;;;;;;5119455;27;20404;-79
2022/02/13 00:29:37;;;;;;;5.05;4.35;;;6.90;77.20;;;;;;5138581;27;20083;-79
2022/02/13 00:32:04;;;;;;;8.25;4.63;;;7.10;76.80;;;;;;5149921;27;20027;-79
2022/02/13 00:34:31;;;;;;;8.48;4.18;;;7.00;76.80;;;;;;5155430;27;20022;-79
2022/02/13 00:36:57;;;;;;;6.97;4.65;;;7.00;76.80;;;;;;5137686;27;20023;-79
2022/02/13 00:39:23;;;;;;;5.97;4.10;;;7.00;76.80;;;;;;5137942;27;20020;-79
2022/02/13 00:41:48;;;;;;;6.95;4.22;;;7.10;76.60;;;;;;5137667;27;20054;-79
2022/02/13 00:44:14;;;;;;;5.93;4.60;;;7.10;76.50;;;;;;5138197;27;20026;-79
2022/02/13 00:46:40;;;;;;;6.03;3.90;;;7.20;76.40;;;;;;5137643;27;20028;-78
2022/02/13 00:49:05;;;;;;;6.32;3.90;;;7.00;76.40;;;;;;5137609;27;20203;-79
2022/02/13 00:51:31;;;;;;;8.27;4.25;;;7.20;76.30;;;;;;5138092;27;20042;-79
2022/02/13 00:53:58;;;;;;;6.63;4.32;;;7.20;76.40;;;;;;5118382;28;20020;-79
2022/02/13 00:56:24;;;;;;;7.28;3.97;;;7.10;76.40;;;;;;5136991;27;20031;-79
2022/02/13 00:58:50;;;;;;;9.50;4.15;;;7.10;76.50;;;;;;5137984;27;20023;-79
2022/02/13 01:01:16;;;;;;;4.90;3.63;;;7.00;76.40;;;;;;5142314;27;20030;-79
2022/02/13 01:03:42;;;;;;;10.63;4.93;;;7.00;76.50;;;;;;5139437;27;20022;-78
2022/02/13 01:06:08;;;;;;;9.48;4.18;;;7.10;76.50;;;;;;5158212;27;20023;-79
2022/02/13 01:08:33;;;;;;;6.88;4.25;;;7.00;76.60;;;;;;5138994;27;20019;-78
2022/02/13 01:11:00;;;;;;;7.72;4.25;;;7.00;76.70;;;;;;5137279;27;20057;-79
2022/02/13 01:13:27;;;;;;;6.35;4.63;;;7.00;76.80;;;;;;5146440;27;20025;-79
2022/02/13 01:15:53;;;;;;;7.78;4.13;;;7.00;76.80;;;;;;5139293;27;20054;-79
2022/02/13 01:18:19;;;;;;;6.05;5.28;;;7.00;76.80;;;;;;5135330;27;20027;-79
2022/02/13 01:20:45;;;;;;;8.68;5.70;;;7.00;76.80;;;;;;5139050;27;20019;-79
2022/02/13 01:23:11;;;;;;;9.13;5.28;;;7.00;76.70;;;;;;5139558;27;20022;-79
2022/02/13 01:25:37;;;;;;;7.43;5.10;;;7.00;76.80;;;;;;5131596;27;20047;-79
2022/02/13 01:28:03;;;;;;;8.10;4.78;;;7.00;76.80;;;;;;5132265;27;20016;-79
2022/02/13 01:30:29;;;;;;;10.75;5.25;;;7.00;76.90;;;;;;5131205;27;20020;-79
2022/02/13 01:32:55;;;;;;;8.90;5.00;;;7.00;77.00;;;;;;5116373;28;20376;-79
2022/02/13 01:35:21;;;;;;;9.98;4.90;;;6.90;77.00;;;;;;5116543;28;20028;-79
2022/02/13 01:37:47;;;;;;;8.00;5.10;;;6.90;76.90;;;;;;5117000;28;20055;-79
2022/02/13 01:40:12;;;;;;;8.95;4.68;;;6.90;76.60;;;;;;5115171;28;20051;-79
2022/02/13 01:42:38;;;;;;;9.88;4.95;;;6.90;76.90;;;;;;5114888;28;20114;-78
2022/02/13 01:45:05;;;;;;;6.78;3.83;;;6.90;76.80;;;;;;5116193;28;20028;-79
2022/02/13 01:47:34;;;;;;;7.88;4.90;;;6.90;76.80;;;;;;5116211;28;20019;-78
2022/02/13 01:50:00;;;;;;;7.40;5.57;;;6.90;76.80;;;;;;5116290;28;20024;-79
2022/02/13 01:52:26;;;;;;;6.18;4.72;;;7.00;76.60;;;;;;5116608;28;20019;-79
2022/02/13 01:54:52;;;;;;;7.55;4.68;;;6.90;76.50;;;;;;5116243;28;20042;-78
2022/02/13 01:57:18;;;;;;;5.22;3.47;;;7.00;76.50;;;;;;5098268;28;20500;-78
2022/02/13 01:59:44;;;;;;;7.65;4.80;;;7.00;76.30;;;;;;5116391;28;20035;-79
2022/02/13 02:02:10;;;;;;;8.52;5.30;;;7.00;76.40;;;;;;5131825;28;20426;-79
2022/02/13 02:04:35;;;;;;;14.40;5.72;;;7.00;76.40;;;;;;5126670;28;20508;-79
2022/02/13 02:07:02;;;;;;;6.43;4.75;;;7.00;76.50;;;;;;5139241;27;20493;-79
2022/02/13 02:09:28;;;;;;;6.97;5.53;;;7.00;76.40;;;;;;5140759;27;20488;-78
2022/02/13 02:11:54;;;;;;;9.65;5.60;;;6.90;76.70;;;;;;5140750;27;20050;-78
2022/02/13 02:14:19;;;;;;;7.28;4.85;;;7.00;76.50;;;;;;5128879;27;20047;-79
2022/02/13 02:16:45;;;;;;;8.35;4.88;;;7.00;76.50;;;;;;5120228;28;20034;-79
2022/02/13 02:19:11;;;;;;;8.70;4.32;;;6.90;76.50;;;;;;5133160;27;20030;-79
2022/02/13 02:21:41;;;;;;;8.65;5.72;;;6.90;76.60;;;;;;5139158;27;20127;-78
2022/02/13 02:24:14;;;;;;;7.43;5.45;;;6.90;76.80;;;;;;5141941;27;20042;-78
2022/02/13 02:26:40;;;;;;;8.10;5.72;;;6.80;76.80;;;;;;5161583;27;20022;-79
2022/02/13 02:29:06;;;;;;;9.57;5.30;;;6.80;76.90;;;;;;5137875;27;20023;-78
2022/02/13 02:31:32;;;;;;;6.57;5.07;;;6.80;77.00;;;;;;5122113;27;20062;-79
2022/02/13 02:33:58;;;;;;;8.85;5.07;;;6.70;77.20;;;;;;5140411;27;20031;-79
2022/02/13 02:36:24;;;;;;;9.90;5.85;;;6.60;77.40;;;;;;5140759;27;20019;-77
2022/02/13 02:38:49;;;;;;;10.07;6.30;;;6.60;77.60;;;;;;5140176;27;20023;-77
2022/02/13 02:41:16;;;;;;;9.55;6.00;;;6.60;77.70;;;;;;5140146;27;20023;-77
2022/02/13 02:43:43;;;;;;;10.50;6.97;;;6.60;77.60;;;;;;5140164;27;20034;-77
2022/02/13 02:46:10;;;;;;;8.90;6.43;;;6.60;77.30;;;;;;5122281;27;20484;-77
2022/02/13 02:48:36;;;;;;;9.40;6.80;;;6.60;77.40;;;;;;5140180;27;20029;-77
2022/02/13 02:51:02;;;;;;;13.57;7.00;;;6.60;77.00;;;;;;5140013;27;20102;-77
2022/02/13 02:53:29;;;;;;;11.07;6.85;;;6.60;77.00;;;;;;5139958;27;20031;-77
2022/02/13 02:55:55;;;;;;;12.75;6.70;;;6.60;76.90;;;;;;5140373;27;20019;-77
2022/02/13 02:58:22;;;;;;;9.00;6.53;;;6.60;76.70;;;;;;5124579;27;20027;-77
2022/02/13 03:00:50;;;;;;;6.97;5.63;;;6.60;76.60;;;;;;5153243;27;20534;-77
2022/02/13 03:03:16;;;;;;;10.60;7.28;;;6.60;76.50;;;;;;5139698;27;20030;-77
2022/02/13 03:05:42;;;;;;;10.85;6.25;;;6.50;76.30;;;;;;5140399;27;20038;-78
2022/02/13 03:08:07;;;;;;;10.57;5.38;;;6.50;76.60;;;;;;5139587;27;20027;-77
2022/02/13 03:10:33;;;;;;;12.38;6.57;;;6.40;76.80;;;;;;5139841;27;20076;-77
2022/02/13 03:12:59;;;;;;;9.05;5.90;;;6.40;76.60;;;;;;5124786;27;20108;-78
2022/02/13 03:15:24;;;;;;;10.70;6.95;;;6.40;76.80;;;;;;5160221;27;20069;-77
2022/02/13 03:17:50;;;;;;;7.97;5.97;;;6.30;76.70;;;;;;5140466;27;20061;-78
2022/02/13 03:20:16;;;;;;;10.88;6.95;;;6.30;76.70;;;;;;5152511;27;20019;-77
2022/02/13 03:22:41;;;;;;;12.07;7.93;;;6.40;76.70;;;;;;5139153;27;20041;-78
2022/02/13 03:25:08;;;;;;;12.07;6.60;;;6.40;76.40;;;;;;5129317;27;20103;-77
2022/02/13 03:27:33;;;;;;;12.88;7.85;;;6.40;76.40;;;;;;5140358;27;20023;-78
2022/02/13 03:29:59;;;;;;;11.77;7.20;;;6.40;76.10;;;;;;5141487;27;20019;-78
2022/02/13 03:32:24;;;;;;;10.48;6.55;;;6.40;76.00;;;;;;5160299;27;20141;-78
2022/02/13 03:34:50;;;;;;;10.60;6.68;;;6.40;76.00;;;;;;5146850;27;20058;-78
2022/02/13 03:37:16;;;;;;;9.43;5.68;;;6.30;76.50;;;;;;5138965;27;20039;-77
2022/02/13 03:39:43;;;;;;;10.45;6.43;;;6.20;76.40;;;;;;5124797;27;20053;-78
2022/02/13 03:42:09;;;;;;;11.02;6.53;;;6.20;76.60;;;;;;5139014;27;20027;-78
2022/02/13 03:44:36;;;;;;;6.25;4.18;;;6.20;76.90;;;;;;5138877;27;20023;-77
2022/02/13 03:47:03;;;;;;;12.98;6.50;;;6.20;76.90;;;;;;5120466;27;20058;-77
2022/02/13 03:49:29;;;;;;;9.57;6.30;;;6.20;77.10;;;;;;5138851;27;20011;-77
2022/02/13 03:51:55;;;;;;;7.03;5.10;;;6.20;77.20;;;;;;5124675;27;20112;-78
2022/02/13 03:54:21;;;;;;;8.07;5.75;;;6.20;77.20;;;;;;5138918;27;20035;-77
2022/02/13 03:56:47;;;;;;;6.70;4.38;;;6.30;77.70;;;;;;5120932;27;20122;-78
2022/02/13 03:59:13;;;;;;;8.52;5.85;;;6.20;77.70;;;;;;5149417;27;20070;-77
2022/02/13 04:01:39;;;;;;;10.52;5.47;;;6.20;78.20;;;;;;5159177;27;20052;-78
2022/02/13 04:04:05;;;;;;;6.70;4.88;;;6.20;78.20;;;;;;5156693;27;20110;-77
2022/02/13 04:06:30;;;;;;;8.57;5.93;;;6.20;78.40;;;;;;5138601;27;20076;-78
2022/02/13 04:08:56;;;;;;;9.27;5.10;;;6.20;78.40;;;;;;5133593;27;20019;-77
2022/02/13 04:11:22;;;;;;;7.13;5.28;;;6.20;78.30;;;;;;5159230;27;20033;-77
2022/02/13 04:13:48;;;;;;;7.55;5.18;;;6.20;78.80;;;;;;5159214;27;20075;-78
2022/02/13 04:16:13;;;;;;;9.63;5.10;;;6.10;79.40;;;;;;5159057;27;20027;-78
2022/02/13 04:18:39;;;;;;;9.93;5.53;;;6.20;79.30;;;;;;5139999;27;20028;-77
2022/02/13 04:21:05;;;;;;;11.30;5.68;;;6.20;79.40;;;;;;5158104;27;20030;-78
2022/02/13 04:23:31;;;;;;;6.55;5.10;;;6.20;79.50;;;;;;5158798;27;20019;-77
2022/02/13 04:25:59;;;;;;;9.80;5.05;;;6.20;79.60;;;;;;5152959;27;20047;-78
2022/02/13 04:28:25;;;;;;;8.23;5.78;;;6.20;79.80;;;;;;5137992;27;20050;-77
2022/02/13 04:30:51;;;;;;;6.28;4.70;;;6.20;79.90;;;;;;5119687;27;20459;-77
2022/02/13 04:33:17;;;;;;;12.98;5.10;;;6.20;79.80;;;;;;5119568;27;20027;-77
2022/02/13 04:35:44;;;;;;;6.68;4.18;;;6.30;79.60;;;;;;5138245;27;20065;-78
2022/02/13 04:38:09;;;;;;;7.60;5.00;;;6.20;79.90;;;;;;5137837;27;20027;-77
2022/02/13 04:40:35;;;;;;;8.55;5.13;;;6.30;79.90;;;;;;5119578;27;20038;-78
2022/02/13 04:43:00;;;;;;;11.23;6.00;;;6.20;80.00;;;;;;5119793;27;20039;-78
2022/02/13 04:45:26;;;;;;;8.20;3.55;;;6.30;80.20;;;;;;5119493;27;20053;-78
2022/02/13 04:47:52;;;;;;;5.50;3.70;;;6.20;80.10;;;;;;5137740;27;20023;-78
2022/02/13 04:50:24;;;;;;;6.10;4.35;;;6.30;79.90;;;;;;5137788;27;20019;-77
2022/02/13 04:52:54;;;;;;;9.93;4.90;;;6.20;80.00;;;;;;5138112;27;20027;-78
2022/02/13 04:55:20;;;;;;;7.60;4.00;;;6.20;80.10;;;;;;5119272;27;20103;-77
2022/02/13 04:57:46;;;;;;;7.25;4.57;;;6.20;80.20;;;;;;5137881;27;20053;-78
2022/02/13 05:00:14;;;;;;;7.38;5.30;;;6.10;80.50;;;;;;5138043;27;20033;-77
2022/02/13 05:02:40;;;;;;;6.88;5.05;;;6.10;80.60;;;;;;5158118;27;20041;-77
2022/02/13 05:05:07;;;;;;;10.15;4.35;;;6.10;80.50;;;;;;5152449;27;20057;-77
2022/02/13 05:07:32;;;;;;;7.57;4.75;;;6.00;80.40;;;;;;5137336;27;20045;-77
2022/02/13 05:09:58;;;;;;;7.07;4.25;;;6.10;80.50;;;;;;5137744;27;20102;-77
2022/02/13 05:12:24;;;;;;;8.57;5.00;;;6.00;80.40;;;;;;5137244;27;20029;-78
2022/02/13 05:14:50;;;;;;;7.35;4.43;;;6.10;80.30;;;;;;5137167;27;20076;-77
2022/02/13 05:17:16;;;;;;;8.57;5.03;;;6.00;80.30;;;;;;5133033;27;20035;-77
2022/02/13 05:19:42;;;;;;;7.05;5.30;;;6.00;80.60;;;;;;5139441;27;20029;-78
2022/02/13 05:22:07;;;;;;;7.35;4.22;;;6.00;80.70;;;;;;5157669;27;20385;-77
2022/02/13 05:24:36;;;;;;;6.43;3.95;;;6.00;80.50;;;;;;5139161;27;20041;-78
2022/02/13 05:27:05;;;;;;;9.65;4.60;;;6.00;80.40;;;;;;5140148;27;20153;-77
2022/02/13 05:29:31;;;;;;;6.97;4.53;;;6.00;80.50;;;;;;5137740;27;20437;-77
2022/02/13 05:31:57;;;;;;;8.38;3.80;;;6.00;80.40;;;;;;5118422;27;20030;-77
2022/02/13 05:34:23;;;;;;;6.65;4.03;;;6.00;80.50;;;;;;5136916;27;20098;-78
2022/02/13 05:36:49;;;;;;;7.72;4.68;;;5.90;80.70;;;;;;5118314;27;20045;-78
2022/02/13 05:39:14;;;;;;;4.43;3.60;;;5.90;80.80;;;;;;5118404;28;20512;-77
2022/02/13 05:41:41;;;;;;;6.68;3.45;;;6.00;80.40;;;;;;5136290;27;20063;-77
2022/02/13 05:44:07;;;;;;;6.22;3.15;;;6.00;80.60;;;;;;5136702;27;20539;-77
2022/02/13 05:46:32;;;;;;;6.13;3.95;;;6.00;80.60;;;;;;5135450;28;20030;-78
2022/02/13 05:48:58;;;;;;;5.63;3.92;;;6.00;80.60;;;;;;5136801;27;20027;-77
2022/02/13 05:51:26;;;;;;;5.40;3.47;;;6.00;80.70;;;;;;5136807;28;20031;-77
2022/02/13 05:53:53;;;;;;;5.43;3.65;;;5.90;80.70;;;;;;5136720;28;20023;-77
2022/02/13 05:56:19;;;;;;;10.95;4.53;;;6.00;80.60;;;;;;5134285;28;20066;-77
2022/02/13 05:58:45;;;;;;;6.35;3.78;;;6.00;80.30;;;;;;5138777;27;20114;-77
2022/02/13 06:01:14;;;;;;;8.40;4.25;;;6.00;80.20;;;;;;5138404;27;20438;-77
2022/02/13 06:03:40;;;;;;;5.65;3.92;;;5.90;80.50;;;;;;5149660;27;20022;-78
2022/02/13 06:06:06;;;;;;;6.85;3.53;;;5.80;80.70;;;;;;5134024;28;20087;-78
2022/02/13 06:08:32;;;;;;;5.72;3.67;;;5.90;80.50;;;;;;5132149;28;20023;-78
2022/02/13 06:10:58;;;;;;;6.72;3.67;;;5.80;80.50;;;;;;5138781;27;20046;-77
2022/02/13 06:13:23;;;;;;;5.00;3.17;;;5.80;80.70;;;;;;5140113;27;20129;-77
2022/02/13 06:15:49;;;;;;;6.00;4.38;;;5.80;80.60;;;;;;5136582;28;20119;-77
2022/02/13 06:18:15;;;;;;;5.18;2.95;;;5.80;80.50;;;;;;5118336;28;20034;-77
2022/02/13 06:20:41;;;;;;;6.45;4.18;;;5.90;80.30;;;;;;5153014;27;20019;-77
2022/02/13 06:23:07;;;;;;;5.60;4.22;;;5.90;80.00;;;;;;5138364;27;20079;-78
2022/02/13 06:25:34;;;;;;;5.05;3.65;;;6.00;80.00;;;;;;5157240;27;20039;-77
2022/02/13 06:28:00;;;;;;;6.90;4.38;;;6.00;79.80;;;;;;5134752;28;20202;-78
2022/02/13 06:30:25;;;;;;;5.75;4.47;;;6.00;79.80;;;;;;5117929;28;20027;-78
2022/02/13 06:32:51;;;;;;;5.38;4.00;;;6.00;79.50;;;;;;5117721;28;20065;-77
2022/02/13 06:35:17;;;;;;;6.47;4.35;;;6.00;79.40;;;;;;5136891;27;20553;-78
2022/02/13 06:37:42;;;;;;;6.60;3.72;;;6.00;79.30;;;;;;5148289;27;20077;-77
2022/02/13 06:40:09;;;;;;;5.70;3.80;;;5.90;79.20;;;;;;5157066;27;20062;-77
2022/02/13 06:42:34;;;;;;;6.28;4.00;;;5.80;79.40;;;;;;5143088;27;20035;-77
2022/02/13 06:45:00;;;;;;;4.38;3.33;;;5.90;79.10;;;;;;5117697;28;20113;-77
2022/02/13 06:47:26;;;;;;;6.15;4.45;;;5.90;79.10;;;;;;5117715;28;20114;-77
2022/02/13 06:49:52;;;;;;;6.07;3.63;;;5.90;79.10;;;;;;5136649;27;20087;-78
2022/02/13 06:52:17;;;;;;;9.32;3.92;;;5.90;79.00;;;;;;5137560;27;20023;-78
2022/02/13 06:54:43;;;;;;;5.80;3.72;;;5.90;78.90;;;;;;5139859;27;20038;-77
2022/02/13 06:57:09;;;;;;;8.20;4.13;;;5.90;78.60;;;;;;5139902;27;20027;-77
2022/02/13 06:59:34;;;;;;;6.45;4.18;;;5.90;78.90;;;;;;5135707;27;20031;-78
2022/02/13 07:02:00;;;;;;;5.63;4.35;;;5.80;78.70;;;;;;5160447;27;20069;-77
2022/02/13 07:04:26;;;;;;;5.43;3.95;;;5.80;78.40;;;;;;5160324;27;20027;-77
2022/02/13 07:06:52;;;;;;;5.95;4.20;;;5.80;78.20;;;;;;5159733;27;20026;-77
2022/02/13 07:09:18;;;;;;;8.27;4.25;;;5.80;78.70;;;;;;5121030;27;20016;-78
2022/02/13 07:11:44;;;;;;;6.10;3.80;;;5.90;78.20;;;;;;5132156;27;20560;-77
2022/02/13 07:14:10;;;;;;;6.97;4.40;;;5.80;77.90;;;;;;5160274;27;20082;-78
2022/02/13 07:16:35;;;;;;;5.75;2.95;;;5.80;78.10;;;;;;5140934;27;20496;-77
2022/02/13 07:19:01;;;;;;;6.75;4.38;;;5.60;78.30;;;;;;5138096;27;20446;-76
2022/02/13 07:21:27;;;;;;;7.10;4.00;;;5.60;78.60;;;;;;5160036;27;20022;-76
2022/02/13 07:23:52;;;;;;;6.57;3.85;;;5.60;78.20;;;;;;5141181;27;20031;-76
2022/02/13 07:26:19;;;;;;;3.35;2.67;;;5.60;78.20;;;;;;5138106;27;20027;-78
2022/02/13 07:28:59;;;;;;;5.28;3.40;;;5.50;78.40;;;;;;5120604;27;20055;-76
2022/02/13 07:31:35;;;;;;;7.25;4.10;;;5.50;78.40;;;;;;5139700;27;20417;-78
2022/02/13 07:34:01;;;;;;;5.50;3.90;;;5.50;78.50;;;;;;5136498;27;20125;-77
2022/02/13 07:36:29;;;;;;;7.95;3.83;;;5.50;78.40;;;;;;5138728;27;20034;-77
2022/02/13 07:38:55;;;;;;;4.50;3.58;;;5.40;78.50;;;;;;5154747;27;20062;-78
2022/02/13 07:41:22;;;;;;;6.45;3.33;;;5.40;78.40;;;;;;5140227;27;20051;-78
2022/02/13 07:43:48;;;;;;;5.88;3.55;;;5.30;78.60;;;;;;5155397;27;20503;-77
2022/02/13 07:46:15;;;;;;;7.05;3.58;;;5.40;78.30;;;;;;5154137;27;20121;-76
2022/02/13 07:48:41;;;;;;;6.95;4.38;;;5.50;78.20;;;;;;5154029;27;20019;-77
2022/02/13 07:51:09;;;;;;;5.00;3.45;;;5.60;77.80;;;;;;5139681;27;20027;-77
2022/02/13 07:53:35;;;;;;;6.78;4.30;;;5.50;77.60;;;;;;5139979;27;20059;-76
2022/02/13 07:56:00;;;;;;;4.22;2.85;;;5.60;77.60;;;;;;5156776;27;20512;-77
2022/02/13 07:58:30;;;;;;;7.95;3.47;;;5.70;77.20;;;;;;5136604;27;20030;-76
2022/02/13 08:00:56;;;;;;;6.30;3.75;;;5.80;76.60;;;;;;5140443;27;20027;-78
2022/02/13 08:03:22;;;;;;;5.15;3.92;;;6.00;76.20;;;;;;5154022;27;20046;-75
2022/02/13 08:05:47;;;;;;;4.80;3.45;;;6.10;75.90;;;;;;5157693;27;21052;-74
2022/02/13 08:08:13;;;;;;;5.55;3.45;;;6.00;75.70;;;;;;5157250;27;20057;-75
2022/02/13 08:10:40;;;;;;;6.35;4.22;;;6.10;75.40;;;;;;5147977;27;20047;-75
2022/02/13 08:13:06;;;;;;;6.65;3.83;;;6.20;75.10;;;;;;5147607;27;20051;-74
2022/02/13 08:15:32;;;;;;;6.40;3.53;;;6.30;74.90;;;;;;5142922;27;20019;-76
2022/02/13 08:18:06;;;;;;;6.03;4.25;;;6.30;74.50;;;;;;5143880;27;20459;-75
2022/02/13 08:20:32;;;;;;;3.42;2.78;;;6.30;74.90;;;;;;5148862;27;20026;-76
2022/02/13 08:22:58;;;;;;;5.70;3.13;;;6.40;74.50;;;;;;5150217;27;20094;-76
2022/02/13 08:25:23;;;;;;;4.20;3.00;;;6.40;74.70;;;;;;5150398;27;20039;-77
2022/02/13 08:27:49;;;;;;;4.35;3.83;;;6.50;74.40;;;;;;5149102;27;20026;-77
2022/02/13 08:30:15;;;;;;;5.93;3.67;;;6.60;74.20;;;;;;5158583;27;20027;-76
2022/02/13 08:32:40;;;;;;;5.68;4.10;;;6.70;74.30;;;;;;5146890;27;20027;-78
2022/02/13 08:35:07;;;;;;;4.93;3.45;;;6.90;74.30;;;;;;5137917;27;20492;-78
2022/02/13 08:37:32;;;;;;;5.22;4.18;;;6.90;73.70;;;;;;5138247;27;20485;-78
2022/02/13 08:39:58;;;;;;;7.03;4.32;;;7.00;73.90;;;;;;5152559;27;20149;-77
2022/02/13 08:42:23;;;;;;;3.92;3.30;;;7.10;74.10;;;;;;5152892;27;20034;-75
2022/02/13 08:44:49;;;;;;;5.07;3.70;;;7.10;74.10;;;;;;5147721;27;20504;-75
2022/02/13 08:47:15;;;;;;;5.35;3.35;;;7.30;74.20;;;;;;5132003;27;20030;-76
2022/02/13 08:49:41;;;;;;;7.68;3.72;;;7.30;74.10;;;;;;5151187;27;20047;-75
2022/02/13 08:52:10;;;;;;;5.53;3.47;;;7.30;74.80;;;;;;5144001;27;20068;-75
2022/02/13 08:54:36;;;;;;;7.10;4.20;;;7.30;74.40;;;;;;5136882;27;20804;-77
2022/02/13 08:57:02;;;;;;;5.95;3.95;;;7.60;74.30;;;;;;5138093;27;20020;-76
